Time;durP1;ratioP1;P1;durP2;ratioP2;P2;SDS_P1;SDS_P2;PMS_P1;PMS_P2;Temp;Humidity;BMP_temperature;BMP_pressure;BME280_temperature;BME280_humidity;BME280_pressure;Samples;Min_cycle;Max_cycle;Signal;HPM_P1;HPM_P2
2023/12/29 00:00:00;;;;;;;2.63;0.70;;;;;;;9.20;86.92;100406.00;5089571;28;20854;-60
2023/12/29 00:02:27;;;;;;;2.53;0.57;;;;;;;9.17;86.94;100403.91;5092973;28;20513;-61
2023/12/29 00:04:55;;;;;;;2.50;0.53;;;;;;;9.17;87.19;100398.50;5093663;28;20547;-61
2023/12/29 00:07:21;;;;;;;1.90;0.50;;;;;;;9.20;87.02;100397.88;5093739;28;20520;-61
2023/12/29 00:09:48;;;;;;;1.70;0.60;;;;;;;9.20;87.01;100386.28;5092925;28;21115;-60
2023/12/29 00:12:15;;;;;;;2.03;0.80;;;;;;;9.24;86.80;100381.88;5093337;28;20547;-61
2023/12/29 00:14:42;;;;;;;1.90;0.57;;;;;;;9.18;87.66;100383.09;5093139;28;20505;-61
2023/12/29 00:17:09;;;;;;;2.33;0.60;;;;;;;9.22;87.00;100362.47;5091035;28;20432;-61
2023/12/29 00:19:35;;;;;;;2.57;1.37;;;;;;;9.20;87.65;100360.06;5088686;28;20436;-61
2023/12/29 00:22:04;;;;;;;2.23;0.57;;;;;;;9.20;87.30;100362.75;5093317;28;20432;-61
2023/12/29 00:24:32;;;;;;;1.83;0.50;;;;;;;9.28;86.57;100367.47;5091630;28;20506;-61
2023/12/29 00:26:59;;;;;;;1.63;0.43;;;;;;;9.29;86.91;100358.25;5091610;28;20441;-60
2023/12/29 00:29:32;;;;;;;1.60;0.40;;;;;;;9.34;86.24;100370.88;5093174;28;20559;-61
2023/12/29 00:31:58;;;;;;;1.70;0.50;;;;;;;9.40;85.51;100364.31;5092774;28;20417;-61
2023/12/29 00:34:25;;;;;;;2.00;0.60;;;;;;;9.41;85.59;100370.50;5092379;28;21013;-60
2023/12/29 00:36:52;;;;;;;3.87;1.00;;;;;;;9.45;84.85;100363.41;5092315;28;20468;-61
2023/12/29 00:39:28;;;;;;;1.80;0.47;;;;;;;9.43;85.24;100360.19;5092173;28;20520;-60
2023/12/29 00:41:54;;;;;;;1.97;0.60;;;;;;;9.45;85.19;100366.13;5091484;28;20760;-61
2023/12/29 00:44:21;;;;;;;3.20;0.70;;;;;;;9.42;85.18;100355.88;5091600;28;20986;-61
2023/12/29 00:46:47;;;;;;;1.60;0.50;;;;;;;9.42;84.86;100345.88;5091780;28;20467;-61
2023/12/29 00:49:14;;;;;;;2.67;0.90;;;;;;;9.44;84.61;100349.09;5092279;28;20488;-61
2023/12/29 00:51:42;;;;;;;1.60;0.50;;;;;;;9.46;84.28;100346.09;5092551;28;20440;-61
2023/12/29 00:54:08;;;;;;;1.87;0.80;;;;;;;9.46;84.23;100335.28;5092336;28;20451;-61
2023/12/29 00:56:36;;;;;;;2.33;0.80;;;;;;;9.47;84.01;100331.47;5089437;28;20979;-61
2023/12/29 00:59:03;;;;;;;1.60;0.40;;;;;;;9.38;84.69;100334.06;5092233;28;20437;-61
2023/12/29 01:01:29;;;;;;;1.80;0.57;;;;;;;9.44;83.83;100326.66;5091682;28;20432;-61
2023/12/29 01:03:56;;;;;;;1.90;0.70;;;;;;;9.39;84.59;100321.38;5091391;28;20462;-61
2023/12/29 01:06:24;;;;;;;1.67;0.43;;;;;;;9.43;83.88;100327.75;5091455;28;20991;-61
2023/12/29 01:08:50;;;;;;;1.60;0.40;;;;;;;9.48;83.15;100316.88;5092008;28;20444;-61
2023/12/29 01:11:17;;;;;;;2.00;0.60;;;;;;;9.53;82.41;100320.25;5091714;28;20510;-61
2023/12/29 01:13:45;;;;;;;2.00;0.67;;;;;;;9.55;82.07;100323.44;5091198;28;20447;-61
2023/12/29 01:16:11;;;;;;;1.70;0.50;;;;;;;9.50;82.33;100315.44;5091292;28;20498;-61
2023/12/29 01:18:38;;;;;;;2.10;1.00;;;;;;;9.49;82.26;100313.84;5091673;28;20468;-61
2023/12/29 01:21:05;;;;;;;1.60;0.43;;;;;;;9.51;82.01;100325.16;5092304;28;20442;-61
2023/12/29 01:23:31;;;;;;;2.87;0.77;;;;;;;9.52;82.10;100310.56;5091459;28;20436;-61
2023/12/29 01:25:59;;;;;;;1.57;0.40;;;;;;;9.53;81.89;100319.47;5091713;28;20972;-61
2023/12/29 01:28:26;;;;;;;1.70;0.60;;;;;;;9.52;82.25;100307.84;5091818;28;20440;-61
2023/12/29 01:30:53;;;;;;;1.90;0.57;;;;;;;9.53;81.93;100305.94;5091594;28;20472;-61
2023/12/29 01:33:21;;;;;;;9.33;0.80;;;;;;;9.54;81.67;100302.13;5080416;28;20801;-61
2023/12/29 01:35:48;;;;;;;1.83;0.53;;;;;;;9.46;82.99;100308.22;5052452;28;1077972;-61
2023/12/29 01:38:14;;;;;;;1.80;0.43;;;;;;;9.48;82.53;100311.47;5074828;28;20206;-61
2023/12/29 01:40:45;;;;;;;1.80;0.60;;;;;;;9.52;81.92;100302.44;5076451;28;20429;-61
2023/12/29 01:43:11;;;;;;;2.20;0.70;;;;;;;9.61;81.11;100305.25;5078471;28;20443;-61
2023/12/29 01:45:38;;;;;;;1.60;0.40;;;;;;;9.60;81.12;100299.00;5084436;28;20537;-62
2023/12/29 01:48:08;;;;;;;3.30;1.20;;;;;;;9.56;82.11;100294.50;5095896;28;20905;-62
2023/12/29 01:50:36;;;;;;;1.80;0.60;;;;;;;9.57;81.18;100283.41;5096313;28;20471;-62
2023/12/29 01:53:04;;;;;;;1.60;0.50;;;;;;;9.48;81.50;100287.91;5096150;28;20519;-62
2023/12/29 01:55:32;;;;;;;2.40;1.00;;;;;;;9.48;81.88;100279.81;5096247;28;20531;-62
2023/12/29 01:57:59;;;;;;;1.80;0.50;;;;;;;9.49;81.86;100281.41;5095867;28;20528;-62
2023/12/29 02:00:27;;;;;;;2.33;0.83;;;;;;;9.52;81.68;100263.78;5095684;28;20471;-62
2023/12/29 02:02:54;;;;;;;2.30;0.70;;;;;;;9.53;81.49;100265.38;5095964;28;20458;-62
2023/12/29 02:05:26;;;;;;;1.60;0.47;;;;;;;9.54;81.34;100261.56;5095295;28;20539;-61
2023/12/29 02:07:53;;;;;;;1.60;0.47;;;;;;;9.55;81.04;100258.56;5096090;28;20537;-62
2023/12/29 02:10:20;;;;;;;1.77;0.60;;;;;;;9.52;81.40;100263.78;5096060;28;20480;-62
2023/12/29 02:12:48;;;;;;;2.10;0.77;;;;;;;9.53;81.35;100276.19;5095964;28;20440;-62
2023/12/29 02:15:15;;;;;;;1.67;0.47;;;;;;;9.51;81.47;100259.47;5095566;28;20480;-62
2023/12/29 02:17:47;;;;;;;1.60;0.50;;;;;;;9.48;81.65;100258.19;5095414;28;20525;-62
2023/12/29 02:20:14;;;;;;;1.63;0.40;;;;;;;9.48;81.91;100257.38;5095979;28;20516;-62
2023/12/29 02:22:42;;;;;;;1.80;0.60;;;;;;;9.45;82.05;100247.16;5095884;28;20514;-62
2023/12/29 02:25:10;;;;;;;2.10;0.70;;;;;;;9.46;81.63;100246.06;5095505;28;20445;-62
2023/12/29 02:27:47;;;;;;;1.90;0.50;;;;;;;9.42;82.10;100235.03;5095739;28;20516;-62
2023/12/29 02:30:21;;;;;;;1.97;0.73;;;;;;;9.42;82.23;100239.66;5095156;28;20559;-62
2023/12/29 02:32:50;;;;;;;1.60;0.50;;;;;;;9.38;82.82;100233.25;5095310;28;20439;-62
2023/12/29 02:35:24;;;;;;;7.90;0.87;;;;;;;9.39;82.71;100241.06;5074855;22;21091;-67
2023/12/29 02:37:50;;;;;;;1.80;0.60;;;;;;;9.32;83.95;100232.56;5051229;28;20431;-66
2023/12/29 02:40:19;;;;;;;2.27;0.70;;;;;;;9.38;83.30;100233.25;5043691;28;20513;-66
2023/12/29 02:42:47;;;;;;;1.63;0.47;;;;;;;9.48;82.30;100235.75;5046358;28;20982;-66
2023/12/29 02:45:14;;;;;;;1.70;0.50;;;;;;;9.48;82.60;100230.34;5049214;28;20479;-66
2023/12/29 02:47:42;;;;;;;2.00;0.77;;;;;;;9.48;82.46;100225.75;5053274;28;20525;-66
2023/12/29 02:50:09;;;;;;;2.20;0.70;;;;;;;9.46;82.87;100221.72;5035998;28;21067;-66
2023/12/29 02:52:36;;;;;;;2.30;0.57;;;;;;;9.39;83.36;100214.03;5039270;28;20488;-66
2023/12/29 02:55:03;;;;;;;1.73;0.53;;;;;;;9.45;82.53;100206.63;5054160;28;21004;-66
2023/12/29 02:57:31;;;;;;;1.70;0.60;;;;;;;9.41;83.17;100213.72;5042964;28;20443;-66
2023/12/29 02:59:58;;;;;;;1.70;0.50;;;;;;;9.37;83.50;100216.22;5045667;28;20525;-66
2023/12/29 03:02:24;;;;;;;2.73;0.80;;;;;;;9.41;82.86;100214.53;5035690;28;20450;-66
2023/12/29 03:04:51;;;;;;;4.17;1.27;;;;;;;9.40;83.58;100222.94;5038760;28;20541;-66
2023/12/29 03:07:18;;;;;;;1.70;0.40;;;;;;;9.43;83.09;100222.31;5054644;28;20514;-66
2023/12/29 03:09:44;;;;;;;2.10;0.60;;;;;;;9.46;82.80;100219.03;5054516;28;20525;-66
2023/12/29 03:12:11;;;;;;;1.70;0.50;;;;;;;9.55;81.61;100218.00;5054426;28;20438;-66
2023/12/29 03:14:39;;;;;;;2.17;0.70;;;;;;;9.59;81.46;100210.09;5054736;28;20545;-66
2023/12/29 03:17:05;;;;;;;1.77;0.60;;;;;;;9.52;81.65;100210.53;5054052;28;20434;-66
2023/12/29 03:19:32;;;;;;;1.60;0.40;;;;;;;9.57;81.66;100207.69;5054202;28;20522;-67
2023/12/29 03:21:59;;;;;;;2.63;0.83;;;;;;;9.54;81.69;100202.09;5052882;28;20919;-66
2023/12/29 03:24:25;;;;;;;2.80;0.60;;;;;;;9.50;82.06;100195.69;5053219;28;20621;-66
2023/12/29 03:26:52;;;;;;;1.80;0.50;;;;;;;9.50;82.17;100190.28;5034857;28;20439;-65
2023/12/29 03:29:18;;;;;;;2.00;0.67;;;;;;;9.52;81.99;100188.09;5034349;28;20529;-65
2023/12/29 03:31:46;;;;;;;2.20;1.10;;;;;;;9.53;82.10;100195.09;5047897;28;20488;-66
2023/12/29 03:34:13;;;;;;;2.10;0.50;;;;;;;9.56;81.58;100192.59;5053668;28;20916;-66
2023/12/29 03:36:40;;;;;;;1.90;0.70;;;;;;;9.57;81.47;100180.66;5054787;28;20435;-66
2023/12/29 03:39:06;;;;;;;2.47;0.90;;;;;;;9.64;81.20;100190.25;5052445;28;20474;-66
2023/12/29 03:41:33;;;;;;;1.80;0.70;;;;;;;9.66;80.95;100183.44;5040001;28;20513;-65
2023/12/29 03:44:00;;;;;;;1.90;0.70;;;;;;;9.61;81.54;100188.97;5053555;28;20547;-66
2023/12/29 03:46:26;;;;;;;2.23;0.60;;;;;;;9.60;81.41;100181.94;5053440;28;20438;-65
2023/12/29 03:48:54;;;;;;;1.67;0.50;;;;;;;9.64;81.03;100171.31;5054391;28;20446;-66
2023/12/29 03:51:21;;;;;;;2.00;0.80;;;;;;;9.67;80.69;100174.22;5054215;28;20481;-66
2023/12/29 03:53:47;;;;;;;2.90;1.00;;;;;;;9.70;80.61;100178.22;5053071;28;20462;-66
2023/12/29 03:56:16;;;;;;;2.33;0.47;;;;;;;9.69;80.82;100163.88;5046832;28;20439;-65
2023/12/29 03:58:43;;;;;;;1.60;0.50;;;;;;;9.67;81.27;100162.59;5037146;28;20950;-66
2023/12/29 04:01:11;;;;;;;2.00;0.70;;;;;;;9.67;81.34;100154.50;5039000;28;20519;-66
2023/12/29 04:03:37;;;;;;;2.27;0.73;;;;;;;9.62;81.83;100150.00;5033587;28;20443;-66
2023/12/29 04:06:06;;;;;;;1.60;0.40;;;;;;;9.63;81.43;100148.91;5039352;28;20526;-66
2023/12/29 04:08:32;;;;;;;1.70;0.47;;;;;;;9.66;81.09;100153.69;5053340;28;20439;-66
2023/12/29 04:10:59;;;;;;;1.77;0.50;;;;;;;9.58;81.79;100143.59;5053568;28;20873;-66
2023/12/29 04:13:25;;;;;;;1.70;0.47;;;;;;;9.60;82.05;100147.59;5053767;28;20488;-66
2023/12/29 04:15:52;;;;;;;2.27;0.70;;;;;;;9.60;81.65;100136.78;5052028;28;20541;-65
2023/12/29 04:18:22;;;;;;;2.53;0.90;;;;;;;9.71;81.25;100128.44;5046345;28;20438;-65
2023/12/29 04:20:49;;;;;;;1.80;0.60;;;;;;;9.73;80.90;100124.31;5036828;28;20869;-66
2023/12/29 04:23:17;;;;;;;1.90;0.70;;;;;;;9.76;80.60;100120.22;5033832;28;20443;-66
2023/12/29 04:25:44;;;;;;;2.23;0.70;;;;;;;9.77;80.49;100114.47;5034627;28;20462;-66
2023/12/29 04:28:10;;;;;;;1.90;0.57;;;;;;;9.75;80.35;100111.28;5050960;28;20878;-66
2023/12/29 04:30:37;;;;;;;2.37;0.83;;;;;;;9.72;81.26;100111.09;5048523;28;21009;-66
2023/12/29 04:33:04;;;;;;;1.60;0.50;;;;;;;9.71;80.83;100115.72;5033472;28;20469;-66
2023/12/29 04:35:30;;;;;;;1.50;0.30;;;;;;;9.71;80.70;100112.22;5034317;28;20904;-66
2023/12/29 04:37:58;;;;;;;1.80;0.40;;;;;;;9.72;80.82;100111.91;5046031;28;20517;-66
2023/12/29 04:40:25;;;;;;;1.60;0.50;;;;;;;9.73;80.57;100107.28;5048882;28;20435;-66
2023/12/29 04:42:52;;;;;;;2.37;0.93;;;;;;;9.71;80.77;100107.59;5033454;28;20443;-66
2023/12/29 04:45:19;;;;;;;1.70;0.50;;;;;;;9.69;80.88;100096.28;5039936;28;20508;-66
2023/12/29 04:47:45;;;;;;;1.60;0.50;;;;;;;9.65;81.10;100103.44;5033554;28;20449;-67
2023/12/29 04:50:12;;;;;;;1.70;0.47;;;;;;;9.62;81.24;100095.13;5039901;28;20517;-67
2023/12/29 04:52:38;;;;;;;1.70;0.50;;;;;;;9.60;81.52;100095.41;5053306;28;20536;-71
2023/12/29 04:55:05;;;;;;;1.67;0.60;;;;;;;9.57;81.65;100093.34;5052956;28;20454;-67
2023/12/29 04:57:33;;;;;;;1.80;0.60;;;;;;;9.48;82.96;100097.88;5049761;28;20502;-66
2023/12/29 05:00:01;;;;;;;1.60;0.40;;;;;;;9.51;82.62;100098.06;5052884;28;20518;-67
2023/12/29 05:02:27;;;;;;;1.50;0.40;;;;;;;9.59;82.18;100091.91;5040790;28;20462;-66
2023/12/29 05:04:54;;;;;;;2.00;0.60;;;;;;;9.49;82.96;100097.56;5034506;28;20498;-66
2023/12/29 05:07:21;;;;;;;1.70;0.47;;;;;;;9.40;83.84;100087.78;5037237;28;20447;-66
2023/12/29 05:09:47;;;;;;;1.50;0.40;;;;;;;9.43;83.37;100096.09;5043880;28;20846;-66
2023/12/29 05:12:15;;;;;;;1.63;0.40;;;;;;;9.48;83.04;100092.47;5046920;28;20482;-67
2023/12/29 05:14:43;;;;;;;1.73;0.50;;;;;;;9.50;83.28;100090.25;5043248;28;20909;-67
2023/12/29 05:17:09;;;;;;;2.13;0.57;;;;;;;9.49;83.43;100092.16;5056348;28;20445;-67
2023/12/29 05:19:36;;;;;;;1.67;0.50;;;;;;;9.48;83.92;100087.88;5057380;28;20441;-67
2023/12/29 05:22:03;;;;;;;1.90;0.50;;;;;;;9.58;83.47;100073.31;5056666;28;20521;-67
2023/12/29 05:24:30;;;;;;;2.30;0.50;;;;;;;9.60;83.22;100095.41;5048971;28;20546;-67
2023/12/29 05:26:56;;;;;;;1.57;0.40;;;;;;;9.59;83.79;100088.41;5036843;28;20439;-67
2023/12/29 05:29:23;;;;;;;1.87;0.60;;;;;;;9.63;83.12;100085.91;5037820;28;20438;-67
2023/12/29 05:31:51;;;;;;;1.63;0.40;;;;;;;9.73;82.93;100080.25;5050047;28;20568;-67
2023/12/29 05:34:17;;;;;;;1.70;0.40;;;;;;;9.85;82.32;100083.19;5043021;28;20955;-67
2023/12/29 05:36:45;;;;;;;1.70;0.50;;;;;;;9.86;82.12;100079.38;5036635;28;20443;-67
2023/12/29 05:39:11;;;;;;;1.60;0.40;;;;;;;9.82;82.86;100081.91;5039618;28;20439;-67
2023/12/29 05:41:38;;;;;;;1.80;0.50;;;;;;;9.83;82.74;100069.19;5046255;28;20924;-67
2023/12/29 05:44:05;;;;;;;1.57;0.40;;;;;;;9.85;82.21;100091.31;5038568;28;20459;-66
2023/12/29 05:46:32;;;;;;;2.17;0.60;;;;;;;9.83;82.73;100080.81;5038411;28;20935;-67
2023/12/29 05:49:00;;;;;;;2.30;0.60;;;;;;;9.77;83.17;100082.03;5035897;28;20785;-67
2023/12/29 05:51:26;;;;;;;1.60;0.50;;;;;;;9.81;82.86;100080.31;5044979;28;20834;-67
2023/12/29 05:53:53;;;;;;;1.63;0.47;;;;;;;9.72;83.78;100076.75;5043578;28;20519;-67
2023/12/29 05:56:21;;;;;;;1.93;0.57;;;;;;;9.73;83.40;100072.94;5035899;28;20443;-68
2023/12/29 05:58:48;;;;;;;1.90;0.40;;;;;;;9.83;82.79;100074.59;5036024;28;20439;-67
2023/12/29 06:01:15;;;;;;;2.50;0.70;;;;;;;9.91;82.13;100079.25;5044427;28;20823;-66
2023/12/29 06:03:42;;;;;;;1.60;0.40;;;;;;;9.93;81.89;100081.66;5035665;28;20497;-67
2023/12/29 06:06:10;;;;;;;3.90;0.90;;;;;;;9.96;81.95;100068.31;5036458;28;20451;-66
2023/12/29 06:08:37;;;;;;;2.27;0.50;;;;;;;9.97;82.11;100066.41;5040087;28;20430;-65
2023/12/29 06:11:03;;;;;;;2.07;0.50;;;;;;;10.06;80.94;100070.75;5050647;28;20489;-66
2023/12/29 06:13:30;;;;;;;1.90;0.50;;;;;;;10.01;81.59;100062.78;5044799;28;20434;-66
2023/12/29 06:15:57;;;;;;;1.60;0.43;;;;;;;9.99;81.60;100064.97;5048438;28;20518;-66
2023/12/29 06:18:24;;;;;;;1.70;0.40;;;;;;;10.00;81.45;100080.09;5051786;28;20438;-66
2023/12/29 06:20:50;;;;;;;1.60;0.50;;;;;;;10.00;81.66;100068.47;5055385;28;20439;-66
2023/12/29 06:23:20;;;;;;;2.00;0.60;;;;;;;10.01;81.35;100089.03;5054441;28;20813;-66
2023/12/29 06:25:47;;;;;;;1.60;0.40;;;;;;;9.99;81.22;100119.09;5043078;28;20458;-66
2023/12/29 06:28:14;;;;;;;1.80;0.50;;;;;;;10.07;80.62;100112.16;5055565;28;20442;-66
2023/12/29 06:30:40;;;;;;;1.90;0.60;;;;;;;10.10;80.45;100109.63;5043493;28;20431;-67
2023/12/29 06:33:07;;;;;;;1.60;0.50;;;;;;;10.17;80.29;100105.66;5055137;28;20442;-66
2023/12/29 06:35:34;;;;;;;1.60;0.50;;;;;;;10.10;80.43;100100.72;5054956;28;20478;-66
2023/12/29 06:38:01;;;;;;;1.70;0.60;;;;;;;10.10;80.59;100103.41;5054816;28;20458;-66
2023/12/29 06:40:29;;;;;;;1.90;0.70;;;;;;;10.24;79.13;100106.03;5055360;28;20445;-67
2023/12/29 06:42:56;;;;;;;3.20;0.50;;;;;;;10.17;80.21;100095.63;5054886;28;20849;-66
2023/12/29 06:45:22;;;;;;;1.80;0.57;;;;;;;10.11;80.46;100102.31;5055047;28;20458;-66
2023/12/29 06:47:49;;;;;;;1.80;0.50;;;;;;;10.12;80.53;100101.19;5054864;28;20438;-66
2023/12/29 06:50:16;;;;;;;1.70;0.47;;;;;;;10.12;80.44;100087.66;5054966;28;20858;-66
2023/12/29 06:52:43;;;;;;;1.60;0.40;;;;;;;10.07;80.17;100087.78;5054647;28;20505;-66
2023/12/29 06:55:10;;;;;;;1.97;0.77;;;;;;;10.08;80.63;100086.69;5054942;28;20459;-66
2023/12/29 06:57:38;;;;;;;2.30;0.50;;;;;;;10.09;80.49;100093.69;5054537;28;20933;-67
2023/12/29 07:00:06;;;;;;;1.70;0.50;;;;;;;10.13;80.25;100096.56;5054972;28;20517;-66
2023/12/29 07:02:33;;;;;;;2.43;0.50;;;;;;;10.02;81.47;100099.53;5037790;28;20438;-66
2023/12/29 07:05:00;;;;;;;1.60;0.40;;;;;;;10.07;80.86;100107.53;5054788;28;20545;-66
2023/12/29 07:07:27;;;;;;;2.17;0.83;;;;;;;10.17;80.37;100111.09;5039034;28;20505;-66
2023/12/29 07:09:53;;;;;;;2.20;0.67;;;;;;;10.19;79.97;100100.75;5054327;28;20430;-67
2023/12/29 07:12:21;;;;;;;1.60;0.47;;;;;;;10.22;79.67;100106.31;5054576;28;20478;-66
2023/12/29 07:14:49;;;;;;;1.60;0.40;;;;;;;10.23;80.33;100099.81;5053570;28;20549;-66
2023/12/29 07:17:16;;;;;;;2.83;0.60;;;;;;;10.26;79.59;100107.34;5041942;28;20439;-66
2023/12/29 07:19:42;;;;;;;2.17;0.77;;;;;;;10.24;80.09;100106.88;5043405;28;20493;-66
2023/12/29 07:22:09;;;;;;;1.70;0.50;;;;;;;10.28;79.44;100099.72;5047591;28;20463;-66
2023/12/29 07:24:36;;;;;;;1.60;0.50;;;;;;;10.27;79.68;100108.97;5040949;28;20475;-66
2023/12/29 07:27:03;;;;;;;1.83;0.60;;;;;;;10.32;79.51;100103.41;5043599;28;20455;-66
2023/12/29 07:29:30;;;;;;;4.17;0.60;;;;;;;10.37;79.25;100109.81;5053854;28;20934;-67
2023/12/29 07:31:59;;;;;;;1.60;0.50;;;;;;;10.37;79.13;100113.31;5053856;28;20518;-66
2023/12/29 07:34:25;;;;;;;1.80;0.60;;;;;;;10.35;79.39;100118.22;5053894;28;20470;-66
2023/12/29 07:36:53;;;;;;;1.70;0.57;;;;;;;10.41;78.94;100114.28;5053585;28;20450;-69
2023/12/29 07:39:20;;;;;;;1.70;0.60;;;;;;;10.42;78.97;100117.78;5053792;28;20837;-68
2023/12/29 07:41:48;;;;;;;1.60;0.50;;;;;;;10.35;79.15;100121.72;5044601;28;20493;-66
2023/12/29 07:44:15;;;;;;;1.90;0.60;;;;;;;10.30;80.22;100123.75;5033741;28;20458;-67
2023/12/29 07:46:41;;;;;;;1.50;0.40;;;;;;;10.25;80.32;100119.28;5051991;28;20511;-68
2023/12/29 07:49:10;;;;;;;2.43;0.80;;;;;;;10.25;80.16;100129.31;5042362;28;20434;-67
2023/12/29 07:51:40;;;;;;;1.80;0.70;;;;;;;10.29;80.38;100122.16;5034198;28;20533;-68
2023/12/29 07:54:07;;;;;;;1.80;0.60;;;;;;;10.33;80.34;100123.94;5042673;28;20532;-68
2023/12/29 07:56:34;;;;;;;1.80;0.60;;;;;;;10.30;80.66;100123.75;5042362;28;20435;-68
2023/12/29 07:59:00;;;;;;;1.70;0.50;;;;;;;10.30;80.64;100127.25;5054064;28;20446;-68
2023/12/29 08:01:27;;;;;;;1.97;0.57;;;;;;;10.34;80.24;100128.25;5040665;28;20454;-68
2023/12/29 08:03:54;;;;;;;1.80;0.60;;;;;;;10.41;80.11;100116.19;5041384;28;20459;-68
2023/12/29 08:06:22;;;;;;;6.50;0.73;;;;;;;10.46;80.08;100129.59;5046989;28;20961;-68
2023/12/29 08:08:48;;;;;;;1.70;0.50;;;;;;;10.47;80.11;100131.19;5053699;28;20478;-68
2023/12/29 08:11:16;;;;;;;1.60;0.40;;;;;;;10.47;80.33;100139.31;5049569;28;20470;-67
2023/12/29 08:13:44;;;;;;;1.90;0.60;;;;;;;10.50;80.28;100133.28;5035226;28;20472;-67
2023/12/29 08:16:11;;;;;;;2.10;0.50;;;;;;;10.62;79.25;100138.88;5048250;28;20438;-68
2023/12/29 08:18:37;;;;;;;1.60;0.47;;;;;;;10.69;78.72;100128.41;5053331;28;21006;-67
2023/12/29 08:21:04;;;;;;;1.50;0.40;;;;;;;10.68;79.56;100132.25;5048836;28;20442;-67
2023/12/29 08:23:32;;;;;;;2.17;0.73;;;;;;;10.71;79.29;100126.19;5040696;28;20517;-67
2023/12/29 08:25:59;;;;;;;2.00;0.60;;;;;;;10.72;78.86;100127.78;5053386;28;20442;-67
2023/12/29 08:28:26;;;;;;;1.93;0.60;;;;;;;10.72;78.67;100137.84;5041794;28;20431;-68
2023/12/29 08:30:52;;;;;;;1.97;0.70;;;;;;;10.75;78.56;100145.31;5046559;28;20813;-67
2023/12/29 08:35:49;;;;;;;9.73;0.63;;;;;;;10.85;77.85;100135.00;5031605;28;20471;-76
2023/12/29 08:38:16;;;;;;;2.33;0.70;;;;;;;10.77;78.64;100140.41;5044111;28;20438;-75
2023/12/29 08:40:44;;;;;;;2.63;0.70;;;;;;;10.91;77.61;100151.13;5053642;28;20470;-74
2023/12/29 08:43:11;;;;;;;1.60;0.40;;;;;;;10.95;77.21;100133.91;5051817;28;20453;-74
2023/12/29 08:45:38;;;;;;;3.50;0.90;;;;;;;10.94;77.50;100140.47;5046807;28;20464;-75
2023/12/29 08:48:05;;;;;;;2.07;0.67;;;;;;;10.91;78.09;100126.75;5035695;28;20435;-74
2023/12/29 08:50:32;;;;;;;1.53;0.40;;;;;;;10.83;78.16;100148.06;5038142;28;20513;-74
2023/12/29 08:52:59;;;;;;;1.93;0.60;;;;;;;10.85;78.13;100131.50;5039633;28;20516;-73
2023/12/29 08:55:25;;;;;;;1.57;0.40;;;;;;;10.84;78.32;100136.09;5040785;28;20541;-72
2023/12/29 08:57:53;;;;;;;1.70;0.50;;;;;;;10.81;78.62;100112.38;5041064;28;20883;-72
2023/12/29 09:00:20;;;;;;;2.00;0.63;;;;;;;10.84;78.41;100125.25;5053643;28;20465;-73
2023/12/29 09:02:47;;;;;;;1.60;0.50;;;;;;;10.85;78.80;100126.88;5051667;28;20492;-72
2023/12/29 09:05:13;;;;;;;1.90;0.50;;;;;;;10.89;78.59;100140.59;5047988;28;20886;-72
2023/12/29 09:07:40;;;;;;;2.13;0.60;;;;;;;10.92;78.45;100145.38;5057298;28;20442;-74
2023/12/29 09:10:10;;;;;;;3.73;0.60;;;;;;;10.97;78.68;100139.03;5055234;28;20935;-73
2023/12/29 09:12:37;;;;;;;2.17;0.60;;;;;;;11.00;78.44;100138.41;5050343;28;20474;-72
2023/12/29 09:15:06;;;;;;;3.20;0.60;;;;;;;10.99;78.81;100134.09;5053321;28;20549;-73
2023/12/29 09:17:33;;;;;;;2.30;0.60;;;;;;;11.03;78.61;100132.34;5053299;28;20918;-73
2023/12/29 09:19:59;;;;;;;2.10;0.80;;;;;;;11.04;78.47;100142.06;5045453;28;20982;-72
2023/12/29 09:22:26;;;;;;;1.80;0.53;;;;;;;11.07;78.42;100139.53;5037184;28;20990;-73
2023/12/29 09:24:54;;;;;;;2.40;0.73;;;;;;;11.06;78.53;100147.97;5043158;28;20493;-72
2023/12/29 09:27:21;;;;;;;3.70;0.60;;;;;;;11.09;78.24;100136.50;5037781;28;20466;-74
2023/12/29 09:29:48;;;;;;;1.80;0.60;;;;;;;11.13;78.50;100152.94;5047123;28;20518;-73
2023/12/29 09:32:16;;;;;;;2.40;0.70;;;;;;;11.26;77.36;100152.00;5040969;28;20566;-73
2023/12/29 09:34:43;;;;;;;4.43;0.80;;;;;;;11.36;76.40;100159.84;5039384;28;21045;-73
2023/12/29 09:37:10;;;;;;;2.37;0.60;;;;;;;11.37;76.26;100147.88;5045360;28;20449;-73
2023/12/29 09:39:36;;;;;;;2.00;0.70;;;;;;;11.32;76.54;100154.25;5039731;28;20497;-73
2023/12/29 09:42:06;;;;;;;1.80;0.50;;;;;;;11.33;76.99;100158.59;5043203;28;20466;-73
2023/12/29 09:44:37;;;;;;;4.37;0.60;;;;;;;11.34;76.67;100153.94;5037739;28;20981;-73
2023/12/29 09:47:04;;;;;;;4.43;0.87;;;;;;;11.34;76.35;100154.75;5043982;28;20942;-73
2023/12/29 09:49:39;;;;;;;1.60;0.40;;;;;;;11.30;77.09;100148.34;5055753;28;20517;-73
2023/12/29 09:52:06;;;;;;;1.50;0.40;;;;;;;11.36;76.88;100154.41;5041103;28;20461;-73
2023/12/29 09:54:34;;;;;;;2.30;0.70;;;;;;;11.39;76.65;100148.38;5053385;28;20493;-73
2023/12/29 09:57:01;;;;;;;1.63;0.47;;;;;;;11.52;75.40;100149.34;5038468;28;20526;-74
2023/12/29 09:59:29;;;;;;;1.70;0.50;;;;;;;11.45;76.05;100143.59;5045968;28;20434;-74
2023/12/29 10:01:57;;;;;;;2.43;0.70;;;;;;;11.50;76.35;100141.50;5053071;28;20517;-70
2023/12/29 10:04:24;;;;;;;1.93;0.50;;;;;;;11.63;74.59;100151.41;5041625;28;20979;-74
2023/12/29 10:06:54;;;;;;;1.80;0.60;;;;;;;11.67;74.57;100142.66;5035984;28;20531;-75
2023/12/29 10:09:22;;;;;;;2.47;0.60;;;;;;;11.68;74.56;100133.38;5042514;28;20452;-76
2023/12/29 10:11:49;;;;;;;1.60;0.50;;;;;;;11.63;74.11;100139.75;5042893;28;20465;-74
2023/12/29 10:14:23;;;;;;;1.80;0.57;;;;;;;11.62;74.95;100140.88;5043436;28;22159;-74
2023/12/29 10:16:55;;;;;;;1.70;0.47;;;;;;;11.70;73.69;100139.31;5051788;28;20437;-74
2023/12/29 10:19:31;;;;;;;1.80;0.50;;;;;;;11.71;73.61;100138.97;5052697;28;20453;-74
2023/12/29 10:22:07;;;;;;;1.80;0.50;;;;;;;11.65;74.33;100139.47;5045252;28;20432;-75
2023/12/29 10:24:35;;;;;;;1.60;0.40;;;;;;;11.75;72.71;100128.28;5036778;28;20486;-74
2023/12/29 10:27:01;;;;;;;2.33;0.70;;;;;;;11.74;73.31;100118.56;5046030;28;20525;-68
2023/12/29 10:29:28;;;;;;;1.97;0.70;;;;;;;11.76;72.67;100116.31;5051549;28;20484;-70
2023/12/29 10:31:55;;;;;;;1.70;0.50;;;;;;;11.79;72.47;100105.63;5038613;28;20514;-74
2023/12/29 10:34:28;;;;;;;2.67;0.83;;;;;;;11.82;72.63;100101.44;5049559;28;20502;-75
2023/12/29 10:36:55;;;;;;;1.70;0.50;;;;;;;11.82;72.07;100105.00;5045262;28;20431;-76
2023/12/29 10:39:23;;;;;;;2.10;0.60;;;;;;;11.72;72.86;100116.13;5050986;28;20535;-74
2023/12/29 10:41:50;;;;;;;2.60;0.60;;;;;;;11.76;73.05;100127.94;5053984;28;20454;-75
2023/12/29 10:44:17;;;;;;;1.80;0.47;;;;;;;11.74;73.14;100129.41;5040998;28;20455;-75
2023/12/29 10:46:44;;;;;;;2.00;0.60;;;;;;;11.73;73.37;100114.22;5041298;28;20430;-75
2023/12/29 10:49:12;;;;;;;2.40;0.70;;;;;;;11.78;73.07;100111.38;5035959;28;20463;-74
2023/12/29 10:51:39;;;;;;;3.43;0.80;;;;;;;11.82;72.45;100121.28;5035135;28;20510;-74
2023/12/29 10:54:06;;;;;;;1.80;0.57;;;;;;;11.86;72.30;100135.81;5042072;28;20491;-75
2023/12/29 10:56:34;;;;;;;2.73;0.77;;;;;;;11.89;72.21;100128.13;5043634;28;20527;-74
2023/12/29 10:59:03;;;;;;;2.80;0.70;;;;;;;11.84;71.86;100140.75;5035057;28;22006;-74
2023/12/29 11:01:30;;;;;;;2.87;0.80;;;;;;;11.92;71.90;100141.06;5037601;28;20435;-74
2023/12/29 11:04:01;;;;;;;2.77;0.60;;;;;;;11.91;72.11;100134.03;5036460;28;20481;-74
2023/12/29 11:06:29;;;;;;;1.60;0.40;;;;;;;11.82;72.44;100126.72;5034453;28;20427;-74
2023/12/29 11:08:56;;;;;;;1.50;0.30;;;;;;;11.75;73.00;100139.94;5035214;28;20448;-74
2023/12/29 11:11:23;;;;;;;1.90;0.47;;;;;;;11.80;72.23;100142.47;5033661;28;20462;-74
2023/12/29 11:13:54;;;;;;;2.30;0.70;;;;;;;11.79;72.95;100131.97;5040861;28;20482;-75
2023/12/29 11:16:22;;;;;;;1.70;0.40;;;;;;;11.82;72.12;100125.88;5043204;28;20814;-74
2023/12/29 11:18:53;;;;;;;2.00;0.70;;;;;;;11.85;71.92;100125.28;5034960;28;20435;-76
2023/12/29 11:21:23;;;;;;;1.93;0.87;;;;;;;11.81;72.23;100110.72;5050316;28;20808;-75
2023/12/29 11:23:49;;;;;;;1.60;0.40;;;;;;;11.84;71.88;100124.47;5035385;28;20451;-75
2023/12/29 11:26:16;;;;;;;2.73;0.90;;;;;;;11.88;71.64;100113.78;5041759;28;20526;-75
2023/12/29 11:28:44;;;;;;;2.30;0.87;;;;;;;11.95;71.59;100107.84;5049993;28;20431;-75
2023/12/29 11:31:12;;;;;;;1.90;0.57;;;;;;;11.93;71.63;100110.91;5046150;28;20518;-75